createdAt,value
2022-11-08T00:00:44.705Z,24.30
2022-11-08T00:03:12.939Z,32.03
2022-11-08T00:05:59.910Z,28.70
2022-11-08T00:08:46.927Z,30.02
2022-11-08T00:11:35.036Z,25.60
2022-11-08T00:14:06.131Z,25.13
2022-11-08T00:16:34.320Z,28.13
2022-11-08T00:19:02.590Z,29.92
2022-11-08T00:21:30.722Z,27.65
2022-11-08T00:23:59.898Z,28.70
2022-11-08T00:26:28.676Z,25.35
2022-11-08T00:28:58.111Z,29.48
2022-11-08T00:31:26.338Z,27.35
2022-11-08T00:33:56.372Z,26.70
2022-11-08T00:36:24.615Z,27.70
2022-11-08T00:38:52.814Z,25.92
2022-11-08T00:41:21.032Z,26.52
2022-11-08T00:43:49.191Z,28.77
2022-11-08T00:46:17.400Z,28.25
2022-11-08T00:48:48.559Z,27.58
2022-11-08T00:51:17.105Z,25.60
2022-11-08T00:53:45.249Z,28.08
2022-11-08T00:56:32.400Z,25.95
2022-11-08T00:59:00.963Z,28.67
2022-11-08T01:01:29.157Z,29.23
2022-11-08T01:03:57.405Z,27.08
2022-11-08T01:06:26.381Z,30.45
2022-11-08T01:08:56.028Z,24.00
2022-11-08T01:11:25.816Z,28.05
2022-11-08T01:13:58.223Z,25.48
2022-11-08T01:16:29.498Z,25.87
2022-11-08T01:18:58.717Z,22.73
2022-11-08T01:21:29.580Z,24.02
2022-11-08T01:23:57.729Z,27.48
2022-11-08T01:26:28.055Z,27.50
2022-11-08T01:28:57.808Z,24.95
2022-11-08T01:31:31.580Z,24.77
2022-11-08T01:34:03.512Z,25.63
2022-11-08T01:36:31.775Z,23.90
2022-11-08T01:38:59.920Z,26.63
2022-11-08T01:41:28.527Z,24.58
2022-11-08T01:43:58.987Z,24.77
2022-11-08T01:46:38.823Z,23.27
2022-11-08T01:49:15.879Z,24.33
2022-11-08T01:51:55.723Z,18.77
2022-11-08T01:55:00.890Z,22.75
2022-11-08T01:57:42.892Z,22.95
2022-11-08T02:00:14.946Z,20.25
2022-11-08T02:02:45.755Z,18.77
2022-11-08T02:05:26.807Z,22.10
2022-11-08T02:08:30.611Z,22.15
2022-11-08T02:10:58.950Z,20.58
2022-11-08T02:13:29.527Z,20.55
2022-11-08T02:15:57.959Z,24.02
2022-11-08T02:18:29.773Z,21.92
2022-11-08T02:21:01.500Z,18.85
2022-11-08T02:23:54.577Z,21.10
2022-11-08T02:26:28.904Z,21.08
2022-11-08T02:28:57.240Z,17.50
2022-11-08T02:31:25.492Z,21.35
2022-11-08T02:33:53.700Z,24.13
2022-11-08T02:36:24.461Z,23.23
2022-11-08T02:38:57.528Z,23.08
2022-11-08T02:41:25.714Z,20.65
2022-11-08T02:43:53.839Z,18.35
2022-11-08T02:46:21.941Z,24.35
2022-11-08T02:48:50.134Z,23.58
2022-11-08T02:51:18.252Z,21.73
2022-11-08T02:53:46.419Z,19.67
2022-11-08T02:56:14.555Z,24.08
2022-11-08T02:58:42.728Z,22.27
2022-11-08T03:01:10.936Z,19.08
2022-11-08T03:03:39.188Z,20.25
2022-11-08T03:06:07.501Z,19.55
2022-11-08T03:08:35.821Z,14.90
2022-11-08T03:11:06.622Z,17.20
2022-11-08T03:13:34.938Z,24.10
2022-11-08T03:16:04.831Z,22.52
2022-11-08T03:18:35.658Z,16.93
2022-11-08T03:21:03.997Z,21.63
2022-11-08T03:23:33.129Z,20.63
2022-11-08T03:26:02.880Z,17.48
2022-11-08T03:28:31.999Z,17.48
2022-11-08T03:31:00.399Z,18.67
2022-11-08T03:33:28.612Z,16.17
2022-11-08T03:35:56.828Z,20.77
2022-11-08T03:38:25.008Z,20.33
2022-11-08T03:40:53.219Z,20.02
2022-11-08T03:43:21.411Z,17.48
2022-11-08T03:45:49.606Z,19.90
2022-11-08T03:48:19.066Z,24.48
2022-11-08T03:50:47.563Z,19.77
2022-11-08T03:53:15.768Z,20.42
2022-11-08T03:55:43.949Z,22.98
2022-11-08T03:58:12.320Z,21.60
2022-11-08T04:00:43.484Z,17.90
2022-11-08T04:03:11.612Z,20.52
2022-11-08T04:05:39.808Z,17.00
2022-11-08T04:08:08.121Z,17.75
2022-11-08T04:10:36.370Z,22.77
2022-11-08T04:13:23.049Z,20.65
2022-11-08T04:15:56.300Z,18.92
2022-11-08T04:21:21.895Z,21.27
2022-11-08T04:23:52.257Z,20.67
2022-11-08T04:26:22.316Z,22.70
2022-11-08T04:28:50.498Z,19.65
2022-11-08T04:31:19.960Z,18.63
2022-11-08T04:33:48.150Z,18.08
2022-11-08T04:36:17.517Z,23.55
2022-11-08T04:38:51.759Z,18.73
2022-11-08T04:41:24.321Z,20.15
2022-11-08T04:43:54.936Z,18.83
2022-11-08T04:46:25.548Z,18.10
2022-11-08T04:48:59.095Z,16.88
2022-11-08T04:51:32.555Z,15.30
2022-11-08T04:54:02.417Z,16.50
2022-11-08T04:56:31.564Z,18.42
2022-11-08T04:59:00.787Z,15.57
2022-11-08T05:01:31.201Z,17.45
2022-11-08T05:03:59.574Z,15.80
2022-11-08T05:06:32.388Z,16.27
2022-11-08T05:09:01.268Z,17.52
2022-11-08T05:11:30.646Z,17.15
2022-11-08T05:14:00.967Z,16.85
2022-11-08T05:16:32.142Z,14.82
2022-11-08T05:19:01.001Z,16.73
2022-11-08T05:21:47.550Z,22.58
2022-11-08T05:24:18.436Z,15.27
2022-11-08T05:26:48.294Z,16.02
2022-11-08T05:29:17.364Z,13.77
2022-11-08T05:31:48.291Z,15.77
2022-11-08T05:34:16.570Z,16.75
2022-11-08T05:36:44.707Z,16.98
2022-11-08T05:39:12.904Z,18.92
2022-11-08T05:41:41.185Z,15.25
2022-11-08T05:44:09.874Z,13.73
2022-11-08T05:46:38.024Z,15.45
2022-11-08T05:49:06.230Z,13.88
2022-11-08T05:51:39.694Z,14.73
2022-11-08T05:54:08.225Z,13.15
2022-11-08T05:56:36.817Z,14.23
2022-11-08T05:59:07.251Z,16.27
2022-11-08T06:01:35.723Z,14.63
2022-11-08T06:04:03.946Z,16.20
2022-11-08T06:06:32.403Z,12.07
2022-11-08T06:09:00.558Z,15.85
2022-11-08T06:11:28.961Z,12.60
2022-11-08T06:13:59.987Z,12.45
2022-11-08T06:16:28.224Z,14.27
2022-11-08T06:18:56.645Z,16.05
2022-11-08T06:21:27.255Z,14.32
2022-11-08T06:23:55.789Z,12.75
2022-11-08T06:26:24.657Z,12.32
2022-11-08T06:28:53.140Z,15.23
2022-11-08T06:31:24.238Z,17.55
2022-11-08T06:33:52.430Z,15.60
2022-11-08T06:36:21.574Z,18.58
2022-11-08T06:38:54.895Z,22.60
2022-11-08T06:43:51.528Z,19.30
2022-11-08T06:46:19.907Z,13.88
2022-11-08T06:48:48.552Z,23.10
2022-11-08T06:51:16.772Z,14.23
2022-11-08T06:53:44.940Z,13.13
2022-11-08T06:56:13.472Z,17.90
2022-11-08T06:58:42.003Z,14.48
2022-11-08T07:01:11.640Z,19.30
2022-11-08T07:03:40.048Z,14.68
2022-11-08T07:06:08.461Z,13.25
2022-11-08T07:08:36.766Z,15.63
2022-11-08T07:11:05.509Z,16.17
2022-11-08T07:13:33.730Z,20.42
2022-11-08T07:16:02.725Z,14.40
2022-11-08T07:18:31.024Z,19.38
2022-11-08T07:21:02.961Z,18.77
2022-11-08T07:23:32.576Z,16.48
2022-11-08T07:26:05.072Z,19.73
2022-11-08T07:28:33.282Z,34.93
2022-11-08T07:31:04.635Z,17.08
2022-11-08T07:33:32.976Z,21.42
2022-11-08T07:36:01.840Z,19.02
2022-11-08T07:38:32.888Z,22.15
2022-11-08T07:41:02.046Z,23.67
2022-11-08T07:43:30.954Z,33.22
2022-11-08T07:46:11.129Z,26.52
2022-11-08T07:48:39.377Z,21.25
2022-11-08T07:51:10.606Z,22.27
2022-11-08T07:53:42.654Z,20.85
2022-11-08T07:56:11.132Z,20.60
2022-11-08T07:58:39.326Z,22.70
2022-11-08T08:01:07.580Z,27.15
2022-11-08T08:03:35.767Z,20.15
2022-11-08T08:06:03.993Z,22.10
2022-11-08T08:08:32.086Z,25.77
2022-11-08T08:11:01.110Z,13.70
2022-11-08T08:13:30.151Z,20.40
2022-11-08T08:16:00.608Z,18.55
2022-11-08T08:18:29.996Z,26.77
2022-11-08T08:20:58.097Z,23.40
2022-11-08T08:23:26.468Z,18.45
2022-11-08T08:25:54.924Z,13.38
2022-11-08T08:28:23.146Z,16.33
2022-11-08T08:30:51.400Z,12.88
2022-11-08T08:33:28.336Z,19.20
2022-11-08T08:35:57.998Z,16.92
2022-11-08T08:38:26.180Z,15.20
2022-11-08T08:40:54.331Z,15.30
2022-11-08T08:43:25.897Z,14.27
2022-11-08T08:45:54.987Z,19.05
2022-11-08T08:48:23.138Z,13.80
2022-11-08T08:50:51.333Z,12.23
2022-11-08T08:53:19.807Z,12.50
2022-11-08T08:55:48.378Z,11.85
2022-11-08T08:58:16.546Z,10.57
2022-11-08T09:03:37.712Z,12.45
2022-11-08T09:06:06.092Z,10.85
2022-11-08T09:08:34.765Z,10.50
2022-11-08T09:11:03.184Z,10.82
2022-11-08T09:13:32.404Z,10.20
2022-11-08T09:16:02.820Z,11.43
2022-11-08T09:18:31.839Z,11.75
2022-11-08T09:21:00.618Z,7.85
2022-11-08T09:23:29.192Z,50.05
2022-11-08T09:26:02.676Z,36.88
2022-11-08T09:28:32.471Z,23.77
2022-11-08T09:31:12.056Z,10.50
2022-11-08T09:33:41.195Z,14.27
2022-11-08T09:36:12.535Z,10.00
2022-11-08T09:38:42.091Z,14.10
2022-11-08T09:41:13.089Z,11.88
2022-11-08T09:43:46.808Z,10.57
2022-11-08T09:46:58.313Z,26.35
2022-11-08T09:49:38.013Z,30.25
2022-11-08T09:52:09.434Z,13.75
2022-11-08T09:54:49.889Z,15.65
2022-11-08T09:57:26.536Z,10.43
2022-11-08T10:00:05.094Z,14.70
2022-11-08T10:02:36.444Z,20.33
2022-11-08T10:05:13.027Z,19.15
2022-11-08T10:07:57.805Z,21.35
2022-11-08T10:11:07.323Z,17.67
2022-11-08T10:13:56.750Z,19.40
2022-11-08T10:17:10.279Z,15.23
2022-11-08T10:20:16.267Z,13.90
2022-11-08T10:22:50.234Z,14.43
2022-11-08T10:25:26.867Z,16.98
2022-11-08T10:27:59.376Z,14.77
2022-11-08T10:30:36.418Z,11.83
2022-11-08T10:33:34.469Z,11.50
2022-11-08T10:36:11.505Z,16.65
2022-11-08T10:39:11.594Z,16.52
2022-11-08T10:41:42.456Z,10.48
2022-11-08T10:44:17.058Z,9.48
2022-11-08T10:46:50.740Z,10.63
2022-11-08T10:49:21.703Z,14.45
2022-11-08T10:51:55.306Z,12.48
2022-11-08T10:54:45.546Z,10.95
2022-11-08T10:57:24.032Z,12.45
2022-11-08T10:59:52.793Z,9.32
2022-11-08T11:02:25.093Z,16.60
2022-11-08T11:05:12.812Z,14.63
2022-11-08T11:07:43.017Z,13.40
2022-11-08T11:10:27.281Z,12.70
2022-11-08T11:13:14.079Z,11.63
2022-11-08T11:15:51.263Z,14.20
2022-11-08T11:18:39.862Z,13.75
2022-11-08T11:21:16.344Z,14.10
2022-11-08T11:23:57.106Z,15.63
2022-11-08T11:26:30.859Z,16.13
2022-11-08T11:29:05.392Z,14.45
2022-11-08T11:31:41.317Z,12.68
2022-11-08T11:34:18.833Z,12.18
2022-11-08T11:36:59.259Z,13.20
2022-11-08T11:39:46.098Z,12.13
2022-11-08T11:42:59.750Z,11.68
2022-11-08T11:45:50.995Z,10.83
2022-11-08T11:48:29.206Z,10.88
2022-11-08T11:50:58.327Z,14.15
2022-11-08T11:53:33.158Z,7.03
2022-11-08T11:56:40.924Z,12.45
2022-11-08T11:59:36.840Z,9.57
2022-11-08T12:02:23.995Z,15.82
2022-11-08T12:08:10.817Z,10.88
2022-11-08T12:11:00.791Z,11.25
2022-11-08T12:13:37.833Z,12.70
2022-11-08T12:16:26.202Z,10.27
2022-11-08T12:19:30.142Z,9.60
2022-11-08T12:22:29.295Z,10.73
2022-11-08T12:25:00.458Z,8.65
2022-11-08T12:27:58.209Z,11.63
2022-11-08T12:30:44.281Z,8.40
2022-11-08T12:33:31.542Z,7.63
2022-11-08T12:36:16.298Z,13.27
2022-11-08T12:39:10.046Z,13.18
2022-11-08T12:41:44.019Z,12.50
2022-11-08T12:44:37.701Z,11.35
2022-11-08T12:47:23.844Z,10.02
2022-11-08T12:50:20.551Z,14.13
2022-11-08T12:53:06.933Z,13.75
2022-11-08T12:55:42.012Z,13.57
2022-11-08T12:58:29.366Z,13.10
2022-11-08T13:01:11.432Z,14.30
2022-11-08T13:03:51.673Z,10.35
2022-11-08T13:06:35.565Z,11.45
2022-11-08T13:09:03.716Z,12.50
2022-11-08T13:11:46.865Z,5.97
2022-11-08T13:14:17.269Z,7.43
2022-11-08T13:17:06.616Z,10.00
2022-11-08T13:19:49.831Z,12.95
2022-11-08T13:22:30.234Z,5.43
2022-11-08T13:25:30.245Z,7.30
2022-11-08T13:27:58.627Z,7.05
2022-11-08T13:30:31.967Z,6.22
2022-11-08T13:35:58.548Z,6.20
2022-11-08T13:38:50.872Z,4.45
2022-11-08T13:41:21.956Z,3.72
2022-11-08T13:43:53.431Z,4.40
2022-11-08T13:46:27.952Z,2.83
2022-11-08T13:49:01.894Z,6.18
2022-11-08T13:51:40.978Z,9.52
2022-11-08T13:54:21.141Z,4.97
2022-11-08T13:57:03.205Z,4.07
2022-11-08T13:59:31.416Z,5.10
2022-11-08T14:02:04.500Z,4.15
2022-11-08T14:04:37.215Z,2.70
2022-11-08T14:07:37.068Z,3.05
2022-11-08T14:10:22.957Z,4.35
2022-11-08T14:12:54.335Z,2.53
2022-11-08T14:15:28.120Z,5.47
2022-11-08T14:18:05.103Z,3.90
2022-11-08T14:20:39.701Z,7.82
2022-11-08T14:23:20.328Z,4.13
2022-11-08T14:25:55.534Z,4.80
2022-11-08T14:28:31.236Z,3.17
2022-11-08T14:31:01.047Z,5.78
2022-11-08T14:33:32.269Z,3.97
2022-11-08T14:36:07.362Z,3.25
2022-11-08T14:38:46.043Z,6.10
2022-11-08T14:41:19.034Z,9.45
2022-11-08T14:43:50.523Z,4.47
2022-11-08T14:46:23.735Z,4.88
2022-11-08T14:48:55.116Z,4.18
2022-11-08T14:51:24.476Z,5.72
2022-11-08T14:53:54.594Z,4.65
2022-11-08T14:56:25.328Z,4.45
2022-11-08T15:01:26.883Z,6.32
2022-11-08T15:04:02.494Z,4.00
2022-11-08T15:06:41.923Z,5.72
2022-11-08T15:09:27.749Z,5.00
2022-11-08T15:12:03.077Z,8.18
2022-11-08T15:14:35.915Z,5.20
2022-11-08T15:17:04.909Z,3.03
2022-11-08T15:19:40.141Z,7.65
2022-11-08T15:22:25.774Z,5.30
2022-11-08T15:25:14.244Z,7.70
2022-11-08T15:27:50.863Z,5.78
2022-11-08T15:30:43.393Z,9.55
2022-11-08T15:33:33.666Z,7.40
2022-11-08T15:36:03.010Z,8.27
2022-11-08T15:38:38.490Z,11.00
2022-11-08T15:41:32.369Z,8.10
2022-11-08T15:46:41.158Z,8.13
2022-11-08T15:49:19.360Z,10.07
2022-11-08T15:51:49.693Z,12.77
2022-11-08T15:54:19.300Z,11.48
2022-11-08T15:56:49.531Z,15.45
2022-11-08T15:59:27.416Z,27.90
2022-11-08T16:02:00.596Z,25.85
2022-11-08T16:04:30.155Z,32.75
2022-11-08T16:07:01.301Z,40.33
2022-11-08T16:09:29.529Z,49.25
2022-11-08T16:11:57.716Z,43.85
2022-11-08T16:14:25.879Z,41.83
2022-11-08T16:16:55.212Z,52.97
2022-11-08T16:19:25.075Z,61.85
2022-11-08T16:21:53.674Z,65.13
2022-11-08T16:24:21.812Z,77.05
2022-11-08T16:26:50.098Z,98.40
2022-11-08T16:29:21.409Z,157.70
2022-11-08T16:31:50.925Z,201.70
2022-11-08T16:34:22.748Z,210.63
2022-11-08T16:36:51.970Z,206.65
2022-11-08T16:39:23.199Z,217.98
2022-11-08T16:41:51.666Z,178.40
2022-11-08T16:44:19.802Z,159.95
2022-11-08T16:46:48.030Z,133.07
2022-11-08T16:49:21.271Z,141.32
2022-11-08T16:51:49.765Z,153.93
2022-11-08T16:54:20.753Z,149.13
2022-11-08T16:56:48.996Z,126.28
2022-11-08T16:59:17.164Z,119.93
2022-11-08T17:01:45.967Z,112.80
2022-11-08T17:04:16.797Z,95.00
2022-11-08T17:06:45.151Z,80.22
2022-11-08T17:09:13.376Z,52.17
2022-11-08T17:11:41.876Z,42.53
2022-11-08T17:14:12.567Z,43.20
2022-11-08T17:16:40.784Z,36.72
2022-11-08T17:19:08.974Z,40.03
2022-11-08T17:21:45.731Z,38.70
2022-11-08T17:24:20.021Z,44.42
2022-11-08T17:26:50.586Z,42.90
2022-11-08T17:29:18.834Z,45.25
2022-11-08T17:31:47.443Z,53.25
2022-11-08T17:34:15.721Z,42.72
2022-11-08T17:36:43.918Z,40.45
2022-11-08T17:39:14.260Z,30.70
2022-11-08T17:41:42.554Z,22.48
2022-11-08T17:44:10.675Z,22.95
2022-11-08T17:46:38.932Z,24.88
2022-11-08T17:49:08.132Z,25.17
2022-11-08T17:51:36.725Z,23.42
2022-11-08T17:54:04.972Z,32.13
2022-11-08T17:56:33.091Z,33.28
2022-11-08T17:59:01.338Z,37.28
2022-11-08T18:01:30.001Z,37.67
2022-11-08T18:03:58.393Z,41.70
2022-11-08T18:06:26.515Z,41.50
2022-11-08T18:08:56.996Z,41.42
2022-11-08T18:11:25.243Z,33.47
2022-11-08T18:13:53.531Z,35.78
2022-11-08T18:16:22.432Z,30.58
2022-11-08T18:18:52.385Z,38.17
2022-11-08T18:21:20.816Z,37.58
2022-11-08T18:23:50.011Z,37.55
2022-11-08T18:26:18.793Z,29.83
2022-11-08T18:28:47.037Z,30.10
2022-11-08T18:31:18.233Z,30.35
2022-11-08T18:33:50.246Z,28.92
2022-11-08T18:36:24.051Z,21.50
2022-11-08T18:38:52.937Z,24.65
2022-11-08T18:41:32.933Z,24.23
2022-11-08T18:44:02.769Z,24.85
2022-11-08T18:46:40.263Z,23.27
2022-11-08T18:49:11.614Z,28.30
2022-11-08T18:51:40.536Z,20.30
2022-11-08T18:54:08.857Z,27.25
2022-11-08T18:56:37.243Z,24.92
2022-11-08T18:59:07.896Z,23.65
2022-11-08T19:01:37.473Z,27.38
2022-11-08T19:04:05.728Z,23.98
2022-11-08T19:06:33.891Z,25.60
2022-11-08T19:09:02.394Z,17.20
2022-11-08T19:11:32.595Z,27.48
2022-11-08T19:14:02.003Z,22.88
2022-11-08T19:16:30.511Z,19.90
2022-11-08T19:18:58.714Z,22.27
2022-11-08T19:21:27.965Z,25.25
2022-11-08T19:24:00.524Z,20.95
2022-11-08T19:26:29.353Z,26.20
2022-11-08T19:28:58.186Z,23.27
2022-11-08T19:31:26.531Z,21.33
2022-11-08T19:33:55.222Z,22.98
2022-11-08T19:36:28.848Z,28.00
2022-11-08T19:38:58.342Z,24.60
2022-11-08T19:41:28.278Z,23.35
2022-11-08T19:43:56.683Z,25.08
2022-11-08T19:46:29.071Z,26.00
2022-11-08T19:48:59.746Z,20.93
2022-11-08T19:51:31.593Z,27.13
2022-11-08T19:54:02.551Z,25.23
2022-11-08T19:56:50.583Z,25.17
2022-11-08T19:59:19.467Z,21.63
2022-11-08T20:01:47.751Z,20.73
2022-11-08T20:04:18.397Z,23.77
2022-11-08T20:06:46.708Z,18.77
2022-11-08T20:09:14.942Z,24.58
2022-11-08T20:11:43.156Z,20.35
2022-11-08T20:14:13.528Z,19.02
2022-11-08T20:16:49.191Z,22.77
2022-11-08T20:19:19.288Z,25.88
2022-11-08T20:21:48.381Z,27.05
2022-11-08T20:24:17.335Z,25.35
2022-11-08T20:26:48.304Z,21.35
2022-11-08T20:29:16.470Z,25.45
2022-11-08T20:31:44.647Z,23.25
2022-11-08T20:34:13.299Z,25.15
2022-11-08T20:36:44.230Z,21.00
2022-11-08T20:39:15.356Z,25.52
2022-11-08T20:41:44.477Z,27.20
2022-11-08T20:44:12.787Z,32.90
2022-11-08T20:46:41.104Z,26.55
2022-11-08T20:49:09.639Z,32.00
2022-11-08T20:51:38.821Z,25.25
2022-11-08T20:54:07.687Z,27.67
2022-11-08T20:56:36.120Z,30.30
2022-11-08T20:59:05.060Z,29.83
2022-11-08T21:01:35.067Z,34.08
2022-11-08T21:04:04.439Z,38.17
2022-11-08T21:06:35.914Z,40.28
2022-11-08T21:09:32.672Z,36.90
2022-11-08T21:11:55.692Z,44.13
2022-11-08T21:14:28.313Z,34.17
2022-11-08T21:17:20.779Z,39.17
2022-11-08T21:19:45.087Z,34.20
2022-11-08T21:22:16.332Z,31.70
2022-11-08T21:24:46.206Z,36.58
2022-11-08T21:27:18.682Z,30.40
2022-11-08T21:29:46.750Z,25.38
2022-11-08T21:32:14.961Z,26.45
2022-11-08T21:34:46.243Z,31.48
2022-11-08T21:37:15.090Z,30.80
2022-11-08T21:39:43.425Z,33.25
2022-11-08T21:42:11.750Z,30.95
2022-11-08T21:44:39.959Z,33.70
2022-11-08T21:47:08.105Z,33.75
2022-11-08T21:49:36.372Z,31.73
2022-11-08T21:52:04.789Z,31.80
2022-11-08T21:54:33.825Z,33.63
2022-11-08T21:57:01.977Z,37.63
2022-11-08T21:59:30.113Z,35.97
2022-11-08T22:01:58.220Z,32.35
2022-11-08T22:04:26.332Z,33.85
2022-11-08T22:06:54.668Z,39.38
2022-11-08T22:09:22.838Z,38.45
2022-11-08T22:11:53.423Z,38.25
2022-11-08T22:14:21.654Z,37.45
2022-11-08T22:16:49.872Z,40.42
2022-11-08T22:19:18.636Z,31.45
2022-11-08T22:21:47.571Z,31.75
2022-11-08T22:24:22.452Z,32.75
2022-11-08T22:26:51.825Z,31.27
2022-11-08T22:29:20.420Z,34.85
2022-11-08T22:31:48.828Z,27.52
2022-11-08T22:34:17.078Z,30.50
2022-11-08T22:36:46.131Z,27.15
2022-11-08T22:39:16.650Z,27.27
2022-11-08T22:41:46.263Z,28.90
2022-11-08T22:44:15.032Z,30.58
2022-11-08T22:46:44.747Z,37.20
2022-11-08T22:49:13.391Z,36.33
2022-11-08T22:51:42.616Z,36.22
2022-11-08T22:54:11.089Z,30.33
2022-11-08T22:56:40.357Z,33.75
2022-11-08T22:59:08.930Z,34.70
2022-11-08T23:01:37.136Z,32.30
2022-11-08T23:04:05.692Z,33.95
2022-11-08T23:06:33.928Z,34.00
2022-11-08T23:09:03.944Z,36.55
2022-11-08T23:11:50.785Z,33.95
2022-11-08T23:14:37.905Z,30.10
2022-11-08T23:17:08.147Z,35.83
2022-11-08T23:19:55.026Z,31.25
2022-11-08T23:22:41.658Z,30.20
2022-11-08T23:25:09.853Z,28.30
2022-11-08T23:27:59.976Z,30.60
2022-11-08T23:30:46.652Z,32.58
2022-11-08T23:33:14.866Z,29.13
2022-11-08T23:36:02.962Z,31.98
2022-11-08T23:38:31.459Z,32.00
2022-11-08T23:41:19.021Z,33.35
2022-11-08T23:44:05.781Z,32.95
2022-11-08T23:46:33.989Z,31.73
2022-11-08T23:49:05.047Z,32.17
2022-11-08T23:51:33.435Z,26.70
2022-11-08T23:54:01.575Z,28.90
2022-11-08T23:56:30.019Z,26.02
2022-11-08T23:58:59.833Z,31.55
